Time;durP1;ratioP1;P1;durP2;ratioP2;P2;SDS_P1;SDS_P2;PMS_P1;PMS_P2;Temp;Humidity;BMP_temperature;BMP_pressure;BME280_temperature;BME280_humidity;BME280_pressure;Samples;Min_cycle;Max_cycle;Signal;HPM_P1;HPM_P2
2021/06/19 00:02:09;;;;;;;;;;;;;;;27.50;45.98;100937.89;1628325;87;20296;-78
2021/06/19 00:04:35;;;;;;;;;;;;;;;27.69;45.56;100930.10;1651364;86;20245;-77
2021/06/19 00:07:02;;;;;;;;;;;;;;;27.30;46.22;100928.34;1651150;86;20226;-77
2021/06/19 00:09:28;;;;;;;;;;;;;;;27.22;46.29;100930.16;1651213;86;20147;-77
2021/06/19 00:11:54;;;;;;;;;;;;;;;27.19;46.35;100932.05;1651882;86;20661;-77
2021/06/19 00:14:20;;;;;;;;;;;;;;;27.16;46.35;100931.72;1651243;86;20150;-77
2021/06/19 00:16:47;;;;;;;;;;;;;;;27.14;46.37;100932.53;1651190;87;20473;-78
2021/06/19 00:19:14;;;;;;;;;;;;;;;27.11;46.61;100931.11;1650900;86;20160;-77
2021/06/19 00:21:42;;;;;;;;;;;;;;;27.08;46.65;100919.25;1651001;86;20425;-77
2021/06/19 00:24:09;;;;;;;;;;;;;;;27.06;46.74;100916.73;1650981;87;20151;-77
2021/06/19 00:26:37;;;;;;;;;;;;;;;27.06;46.85;100926.91;1651112;87;20143;-77
2021/06/19 00:29:03;;;;;;;;;;;;;;;27.06;46.99;100921.41;1651086;86;20147;-77
2021/06/19 00:31:29;;;;;;;;;;;;;;;27.42;46.30;100924.59;1653315;85;20275;-77
2021/06/19 00:33:56;;;;;;;;;;;;;;;27.10;46.87;100925.34;1657644;86;20253;-77
2021/06/19 00:36:22;;;;;;;;;;;;;;;27.03;46.94;100920.56;1665025;86;20170;-78
2021/06/19 00:38:48;;;;;;;;;;;;;;;26.98;46.80;100924.59;1663491;86;20247;-78
2021/06/19 00:41:13;;;;;;;;;;;;;;;26.93;46.81;100920.41;1664999;86;20152;-78
2021/06/19 00:43:40;;;;;;;;;;;;;;;26.93;46.93;100915.73;1664981;86;20430;-77
2021/06/19 00:46:07;;;;;;;;;;;;;;;27.01;46.71;100918.59;1664731;86;20163;-77
2021/06/19 00:48:33;;;;;;;;;;;;;;;26.94;46.67;100925.67;1664407;86;20137;-78
2021/06/19 00:50:59;;;;;;;;;;;;;;;26.98;46.62;100919.09;1665399;86;20307;-78
2021/06/19 00:53:25;;;;;;;;;;;;;;;26.94;46.82;100920.72;1664993;86;20172;-78
2021/06/19 00:55:51;;;;;;;;;;;;;;;26.93;46.91;100919.03;1665385;86;20228;-78
2021/06/19 00:58:17;;;;;;;;;;;;;;;26.92;46.98;100921.50;1665245;86;20199;-78
2021/06/19 01:00:43;;;;;;;;;;;;;;;27.07;46.59;100920.34;1665144;86;20196;-78
2021/06/19 01:03:09;;;;;;;;;;;;;;;26.89;46.70;100924.75;1665219;86;20256;-78
2021/06/19 01:05:37;;;;;;;;;;;;;;;26.84;46.75;100920.56;1665173;86;20170;-78
2021/06/19 01:08:04;;;;;;;;;;;;;;;26.81;46.82;100922.75;1664936;86;20203;-78
2021/06/19 01:10:30;;;;;;;;;;;;;;;26.78;46.67;100920.50;1664922;86;20149;-78
2021/06/19 01:12:59;;;;;;;;;;;;;;;26.76;46.76;100919.11;1664879;85;20141;-77
2021/06/19 01:15:25;;;;;;;;;;;;;;;26.74;46.82;100920.72;1664954;85;20142;-77
2021/06/19 01:17:51;;;;;;;;;;;;;;;26.73;46.95;100916.86;1664940;86;20445;-77
2021/06/19 01:20:19;;;;;;;;;;;;;;;26.72;47.26;100920.70;1664983;86;20200;-77
2021/06/19 01:22:47;;;;;;;;;;;;;;;26.69;47.40;100916.53;1664193;85;20192;-78
2021/06/19 01:25:18;;;;;;;;;;;;;;;26.68;47.37;100917.63;1662878;85;20201;-77
2021/06/19 01:27:44;;;;;;;;;;;;;;;26.71;47.33;100912.18;1623113;88;20189;-77
2021/06/19 01:30:11;;;;;;;;;;;;;;;26.66;47.47;100912.94;1624619;88;20178;-77
2021/06/19 01:32:38;;;;;;;;;;;;;;;26.66;47.52;100914.31;1624290;88;20105;-77
2021/06/19 01:35:06;;;;;;;;;;;;;;;26.69;47.54;100911.58;1624465;88;20448;-77
2021/06/19 01:37:32;;;;;;;;;;;;;;;27.03;46.91;100919.19;1624328;88;20153;-77
2021/06/19 01:40:09;;;;;;;;;;;;;;;26.76;47.29;100922.69;1625016;88;20742;-77
2021/06/19 01:42:40;;;;;;;;;;;;;;;26.76;47.25;100926.81;1624384;88;20196;-77
2021/06/19 01:45:12;;;;;;;;;;;;;;;26.64;47.36;100920.59;1624233;88;20181;-77
2021/06/19 01:47:38;;;;;;;;;;;;;;;26.63;47.34;100929.92;1623541;88;20449;-78
2021/06/19 01:50:06;;;;;;;;;;;;;;;26.63;47.39;100924.98;1623288;88;20172;-78
2021/06/19 01:52:32;;;;;;;;;;;;;;;26.63;47.34;100929.09;1623053;88;20185;-78
2021/06/19 01:54:58;;;;;;;;;;;;;;;26.62;47.30;100933.77;1654156;85;20182;-77
2021/06/19 01:57:25;;;;;;;;;;;;;;;26.59;47.38;100927.94;1661069;86;20176;-78
2021/06/19 02:00:07;;;;;;;;;;;;;;;26.57;47.46;100933.66;1661085;86;20156;-78
2021/06/19 02:02:38;;;;;;;;;;;;;;;26.56;47.45;100932.01;1654488;86;20337;-77
2021/06/19 02:05:07;;;;;;;;;;;;;;;26.23;48.01;100936.98;1662529;85;20135;-78
2021/06/19 02:07:34;;;;;;;;;;;;;;;26.47;47.50;100937.64;1662058;85;20189;-78
2021/06/19 02:10:00;;;;;;;;;;;;;;;26.39;47.73;100937.52;1662829;85;20431;-78
2021/06/19 02:12:26;;;;;;;;;;;;;;;26.46;47.63;100939.56;1662899;86;20197;-78
2021/06/19 02:14:52;;;;;;;;;;;;;;;26.46;47.51;100940.11;1663031;85;20133;-78
2021/06/19 02:17:18;;;;;;;;;;;;;;;26.47;47.54;100943.14;1662944;85;20240;-78
2021/06/19 02:19:44;;;;;;;;;;;;;;;26.45;47.63;100943.95;1663018;85;20219;-78
2021/06/19 02:22:10;;;;;;;;;;;;;;;26.42;47.74;100944.41;1657219;86;20181;-78
2021/06/19 02:24:36;;;;;;;;;;;;;;;26.41;47.78;100944.12;1649848;87;20555;-78
2021/06/19 02:27:07;;;;;;;;;;;;;;;26.39;47.74;100939.41;1650483;86;20130;-78
2021/06/19 02:29:34;;;;;;;;;;;;;;;26.37;47.72;100947.91;1650501;87;20432;-78
2021/06/19 02:32:00;;;;;;;;;;;;;;;26.37;47.72;100953.94;1650109;87;20166;-79
2021/06/19 02:34:26;;;;;;;;;;;;;;;26.37;47.85;100956.69;1650283;86;20304;-78
2021/06/19 02:36:51;;;;;;;;;;;;;;;26.36;47.95;100957.23;1649994;86;20217;-78
2021/06/19 02:39:19;;;;;;;;;;;;;;;26.37;48.01;100958.89;1649904;87;20151;-78
2021/06/19 02:41:45;;;;;;;;;;;;;;;26.38;48.09;100961.09;1649877;86;20456;-78
2021/06/19 02:44:11;;;;;;;;;;;;;;;26.40;48.04;100958.95;1650036;86;20619;-78
2021/06/19 02:46:37;;;;;;;;;;;;;;;26.40;48.19;100959.77;1627124;87;20249;-79
2021/06/19 02:49:03;;;;;;;;;;;;;;;26.43;48.31;100961.17;1650375;87;20168;-78
2021/06/19 02:51:29;;;;;;;;;;;;;;;26.44;48.31;100963.72;1650566;86;20210;-78
2021/06/19 02:53:56;;;;;;;;;;;;;;;26.47;48.27;100968.69;1650213;87;20479;-79
2021/06/19 02:56:22;;;;;;;;;;;;;;;26.49;48.14;100969.28;1650183;86;20158;-78
2021/06/19 02:58:48;;;;;;;;;;;;;;;26.53;48.12;100973.75;1649850;87;20155;-79
2021/06/19 03:01:15;;;;;;;;;;;;;;;26.55;48.09;100974.31;1649564;87;20147;-79
2021/06/19 03:03:41;;;;;;;;;;;;;;;26.58;48.08;100983.98;1649252;86;20134;-79
2021/06/19 03:06:07;;;;;;;;;;;;;;;26.56;48.02;100982.84;1650006;86;20162;-78
2021/06/19 03:08:33;;;;;;;;;;;;;;;26.55;48.09;100982.00;1649906;86;20415;-78
2021/06/19 03:11:00;;;;;;;;;;;;;;;26.56;48.03;100985.58;1650267;86;20148;-78
2021/06/19 03:13:26;;;;;;;;;;;;;;;26.56;47.95;100985.03;1650193;86;20198;-78
2021/06/19 03:15:52;;;;;;;;;;;;;;;26.50;48.08;100983.85;1648174;87;20794;-79
2021/06/19 03:18:18;;;;;;;;;;;;;;;26.57;47.99;100984.49;1647226;87;20187;-79
2021/06/19 03:20:46;;;;;;;;;;;;;;;26.58;47.96;100983.44;1647069;87;20174;-79
2021/06/19 03:23:12;;;;;;;;;;;;;;;26.57;47.93;100991.36;1646573;87;20233;-79
2021/06/19 03:25:41;;;;;;;;;;;;;;;26.54;47.96;100995.46;1646639;87;20258;-79
2021/06/19 03:28:08;;;;;;;;;;;;;;;26.53;48.12;100993.80;1646920;86;20172;-78
2021/06/19 03:30:36;;;;;;;;;;;;;;;26.53;48.12;100994.34;1647181;87;20210;-79
2021/06/19 03:33:03;;;;;;;;;;;;;;;26.50;48.17;100994.30;1647124;87;20186;-79
2021/06/19 03:35:29;;;;;;;;;;;;;;;26.48;48.00;100990.13;1647161;86;20211;-79
2021/06/19 03:37:55;;;;;;;;;;;;;;;26.44;48.00;100986.23;1647622;87;20177;-79
2021/06/19 03:40:21;;;;;;;;;;;;;;;26.43;48.10;100983.14;1648855;87;20190;-79
2021/06/19 03:42:51;;;;;;;;;;;;;;;26.45;48.07;100981.03;1648682;86;20140;-79
2021/06/19 03:45:23;;;;;;;;;;;;;;;26.47;48.02;100982.42;1648876;87;20156;-78
2021/06/19 03:47:49;;;;;;;;;;;;;;;26.49;47.99;100980.82;1647630;87;20091;-78
2021/06/19 03:50:18;;;;;;;;;;;;;;;26.52;48.00;100987.16;1648726;87;20201;-78
2021/06/19 03:52:44;;;;;;;;;;;;;;;26.52;47.95;100988.54;1647492;87;20198;-78
2021/06/19 03:55:11;;;;;;;;;;;;;;;26.48;47.99;100989.61;1648567;87;20128;-77
2021/06/19 03:57:43;;;;;;;;;;;;;;;26.46;48.12;100989.55;1648706;87;20154;-78
2021/06/19 04:00:15;;;;;;;;;;;;;;;26.46;48.22;100990.38;1647266;86;20145;-77
2021/06/19 04:02:42;;;;;;;;;;;;;;;26.51;48.27;100994.58;1647079;86;20130;-78
2021/06/19 04:05:09;;;;;;;;;;;;;;;26.52;48.38;100998.16;1646898;87;20187;-78
2021/06/19 04:07:36;;;;;;;;;;;;;;;26.51;48.33;100993.20;1648798;87;20234;-77
2021/06/19 04:10:03;;;;;;;;;;;;;;;26.50;48.39;101002.54;1651319;87;20166;-78
2021/06/19 04:12:30;;;;;;;;;;;;;;;26.50;48.49;101000.33;1649729;85;20182;-78
2021/06/19 04:14:57;;;;;;;;;;;;;;;26.52;48.57;101006.39;1648634;86;20194;-77
2021/06/19 04:17:23;;;;;;;;;;;;;;;26.54;48.59;100998.75;1649496;86;20182;-76
2021/06/19 04:19:50;;;;;;;;;;;;;;;26.58;48.67;101001.84;1650227;86;20273;-77
2021/06/19 04:22:17;;;;;;;;;;;;;;;26.60;48.75;101001.86;1656198;85;20206;-77
2021/06/19 04:24:43;;;;;;;;;;;;;;;26.63;48.67;101002.73;1661305;85;20204;-77
2021/06/19 04:27:15;;;;;;;;;;;;;;;26.67;48.71;101005.83;1657095;86;20149;-77
2021/06/19 04:29:42;;;;;;;;;;;;;;;26.69;48.70;101015.46;1656191;86;20150;-77
2021/06/19 04:32:08;;;;;;;;;;;;;;;26.66;48.73;101007.74;1660177;86;20180;-78
2021/06/19 04:34:35;;;;;;;;;;;;;;;26.70;48.84;101012.17;1660270;85;20172;-78
2021/06/19 04:37:01;;;;;;;;;;;;;;;26.72;48.81;101005.89;1660655;85;20445;-77
2021/06/19 04:39:27;;;;;;;;;;;;;;;26.76;48.81;101008.44;1660731;85;20263;-77
2021/06/19 04:41:56;;;;;;;;;;;;;;;26.82;48.82;101014.28;1660511;86;20494;-78
2021/06/19 04:46:50;;;;;;;;;;;;;;;26.92;48.79;101013.05;1661149;86;20482;-77
2021/06/19 04:49:16;;;;;;;;;;;;;;;27.00;48.76;101017.29;1663149;86;20189;-77
2021/06/19 04:51:43;;;;;;;;;;;;;;;27.08;48.54;101014.66;1650912;85;20436;-77
2021/06/19 04:54:09;;;;;;;;;;;;;;;27.14;48.40;101014.48;1636161;87;20166;-80
2021/06/19 04:56:38;;;;;;;;;;;;;;;27.20;48.35;101018.95;1635247;87;20502;-78
2021/06/19 04:59:05;;;;;;;;;;;;;;;27.25;48.25;101019.56;1634528;87;20212;-78
2021/06/19 05:01:32;;;;;;;;;;;;;;;27.28;48.27;101015.77;1634502;87;20204;-78
2021/06/19 05:04:00;;;;;;;;;;;;;;;27.35;48.12;101020.27;1640776;85;20479;-79
2021/06/19 05:06:25;;;;;;;;;;;;;;;27.38;47.85;101019.73;1669223;85;20217;-79
2021/06/19 05:08:52;;;;;;;;;;;;;;;27.37;47.80;101018.08;1675246;85;20184;-78
2021/06/19 05:11:18;;;;;;;;;;;;;;;27.39;47.78;101023.63;1675224;85;20210;-78
2021/06/19 05:13:45;;;;;;;;;;;;;;;27.42;47.58;101018.14;1676244;85;20191;-79
2021/06/19 05:16:14;;;;;;;;;;;;;;;27.42;47.56;101028.59;1675385;85;20168;-78
2021/06/19 05:18:43;;;;;;;;;;;;;;;27.41;47.46;101024.73;1667139;85;20424;-79
2021/06/19 05:21:09;;;;;;;;;;;;;;;27.39;47.54;101025.52;1660004;85;20274;-79
2021/06/19 05:23:34;;;;;;;;;;;;;;;27.35;47.50;101024.39;1673134;85;20206;-78
2021/06/19 05:26:02;;;;;;;;;;;;;;;27.34;47.79;101018.58;1665958;85;20452;-78
2021/06/19 05:28:28;;;;;;;;;;;;;;;27.34;47.93;101021.33;1675092;85;20183;-79
2021/06/19 05:30:54;;;;;;;;;;;;;;;27.34;47.95;101025.45;1674621;85;20558;-78
2021/06/19 05:33:21;;;;;;;;;;;;;;;27.33;47.98;101018.30;1675099;85;20168;-79
2021/06/19 05:35:47;;;;;;;;;;;;;;;27.37;48.28;101028.53;1676118;85;20150;-78
2021/06/19 05:38:13;;;;;;;;;;;;;;;27.43;48.30;101023.37;1675128;85;20258;-78
2021/06/19 05:40:39;;;;;;;;;;;;;;;27.54;48.10;101018.30;1675353;85;20203;-79
2021/06/19 05:43:05;;;;;;;;;;;;;;;27.65;47.95;101022.53;1675116;85;20192;-78
2021/06/19 05:45:31;;;;;;;;;;;;;;;27.72;47.80;101031.47;1675185;85;20243;-78
2021/06/19 05:47:57;;;;;;;;;;;;;;;27.80;47.83;101030.47;1675064;85;20205;-77
2021/06/19 05:50:23;;;;;;;;;;;;;;;27.90;47.36;101020.65;1670073;85;20302;-78
2021/06/19 05:52:49;;;;;;;;;;;;;;;27.94;47.51;101031.43;1649355;85;20238;-77
2021/06/19 05:55:15;;;;;;;;;;;;;;;27.97;47.50;101033.64;1658964;85;20213;-78
2021/06/19 05:57:41;;;;;;;;;;;;;;;28.05;47.34;101025.75;1674559;85;20215;-79
2021/06/19 06:00:09;;;;;;;;;;;;;;;28.11;47.33;101034.88;1652784;85;20191;-78
2021/06/19 06:02:42;;;;;;;;;;;;;;;28.16;47.11;101036.33;1639250;86;20258;-78
2021/06/19 06:05:11;;;;;;;;;;;;;;;28.22;47.31;101028.94;1649845;85;20206;-78
2021/06/19 06:07:37;;;;;;;;;;;;;;;28.32;47.14;101034.53;1648657;87;20526;-78
2021/06/19 06:10:04;;;;;;;;;;;;;;;28.45;46.66;101044.33;1648935;86;20439;-78
2021/06/19 06:12:31;;;;;;;;;;;;;;;28.50;46.34;101029.20;1648410;87;20175;-77
2021/06/19 06:14:59;;;;;;;;;;;;;;;28.58;46.32;101028.72;1662927;85;20186;-78
2021/06/19 06:17:25;;;;;;;;;;;;;;;28.66;46.08;101028.23;1674671;85;20191;-78
2021/06/19 06:19:52;;;;;;;;;;;;;;;28.76;45.90;101036.57;1673974;85;20438;-78
2021/06/19 06:22:18;;;;;;;;;;;;;;;28.85;45.81;101027.81;1657842;85;20184;-78
2021/06/19 06:24:44;;;;;;;;;;;;;;;28.98;45.69;101030.13;1647693;86;20207;-78
2021/06/19 06:27:10;;;;;;;;;;;;;;;29.10;45.48;101032.11;1648316;87;20193;-78
2021/06/19 06:29:36;;;;;;;;;;;;;;;29.08;45.52;101030.17;1648310;86;20254;-78
2021/06/19 06:32:02;;;;;;;;;;;;;;;29.32;44.85;101037.46;1649488;85;20263;-78
2021/06/19 06:34:28;;;;;;;;;;;;;;;29.46;44.73;101033.66;1650313;86;20179;-78
2021/06/19 06:36:54;;;;;;;;;;;;;;;29.59;44.79;101020.77;1649835;87;20187;-78
2021/06/19 06:39:20;;;;;;;;;;;;;;;29.75;44.43;101030.77;1672175;85;20245;-78
2021/06/19 06:41:46;;;;;;;;;;;;;;;29.86;44.17;101026.64;1650247;86;20187;-78
2021/06/19 06:44:12;;;;;;;;;;;;;;;30.01;44.04;101028.03;1648372;86;20764;-78
2021/06/19 06:46:39;;;;;;;;;;;;;;;30.18;43.58;101030.58;1648990;86;20183;-78
2021/06/19 06:49:05;;;;;;;;;;;;;;;30.33;43.44;101025.88;1649409;86;20194;-78
2021/06/19 06:51:37;;;;;;;;;;;;;;;30.50;43.19;101022.02;1649041;87;20563;-78
2021/06/19 06:54:04;;;;;;;;;;;;;;;30.63;42.96;101025.59;1644954;86;20169;-78
2021/06/19 06:56:30;;;;;;;;;;;;;;;30.78;42.75;101035.27;1635934;86;20181;-78
2021/06/19 06:58:56;;;;;;;;;;;;;;;30.89;42.53;101026.98;1636698;86;20192;-78
2021/06/19 07:01:22;;;;;;;;;;;;;;;31.03;42.25;101039.11;1648185;86;20271;-79
2021/06/19 07:03:49;;;;;;;;;;;;;;;31.13;41.65;101027.19;1649550;87;20492;-79
2021/06/19 07:06:16;;;;;;;;;;;;;;;31.22;41.59;101024.93;1650027;86;20198;-78
2021/06/19 07:08:42;;;;;;;;;;;;;;;31.33;41.32;101030.72;1650421;86;20695;-78
2021/06/19 07:11:08;;;;;;;;;;;;;;;31.40;40.91;101036.52;1657189;85;20487;-78
2021/06/19 07:13:35;;;;;;;;;;;;;;;31.41;40.86;101038.17;1660955;85;20177;-78
2021/06/19 07:16:04;;;;;;;;;;;;;;;31.37;40.48;101029.60;1660311;85;20193;-79
2021/06/19 07:18:30;;;;;;;;;;;;;;;31.26;40.67;101028.80;1650602;85;20860;-79
2021/06/19 07:20:55;;;;;;;;;;;;;;;31.15;40.93;101030.48;1648085;87;20181;-80
2021/06/19 07:23:23;;;;;;;;;;;;;;;31.11;40.79;101028.83;1647721;87;20253;-78
2021/06/19 07:25:48;;;;;;;;;;;;;;;30.96;40.90;101032.47;1648210;87;20194;-78
2021/06/19 07:28:14;;;;;;;;;;;;;;;31.20;40.38;101034.61;1649104;86;20311;-78
2021/06/19 07:30:40;;;;;;;;;;;;;;;30.85;40.87;101032.23;1648253;86;20259;-78
2021/06/19 07:33:07;;;;;;;;;;;;;;;30.72;41.27;101037.78;1633125;87;20237;-78
2021/06/19 07:35:32;;;;;;;;;;;;;;;30.72;41.86;101039.16;1632747;87;20274;-78
2021/06/19 07:37:58;;;;;;;;;;;;;;;30.75;41.85;101035.86;1632454;88;20160;-78
2021/06/19 07:40:26;;;;;;;;;;;;;;;30.81;41.62;101030.58;1631863;87;20187;-78
2021/06/19 07:42:52;;;;;;;;;;;;;;;30.86;41.18;101024.77;1632739;87;20187;-77
2021/06/19 07:45:19;;;;;;;;;;;;;;;30.93;41.02;101026.67;1645213;85;20246;-78
2021/06/19 07:47:45;;;;;;;;;;;;;;;30.85;41.28;101028.09;1651912;85;20405;-78
2021/06/19 07:50:11;;;;;;;;;;;;;;;30.80;41.54;101024.78;1648078;87;20194;-78
2021/06/19 07:52:37;;;;;;;;;;;;;;;31.10;41.16;101022.20;1646962;87;20209;-77
2021/06/19 07:55:03;;;;;;;;;;;;;;;31.02;41.32;101022.22;1649073;85;20886;-78
2021/06/19 07:57:30;;;;;;;;;;;;;;;31.01;41.26;101024.72;1646301;86;20368;-78
2021/06/19 07:59:57;;;;;;;;;;;;;;;31.05;41.55;101019.72;1648800;87;20404;-78
2021/06/19 08:02:23;;;;;;;;;;;;;;;31.11;41.33;101026.62;1648653;87;20139;-78
2021/06/19 08:04:50;;;;;;;;;;;;;;;31.13;41.44;101021.65;1649224;86;20152;-79
2021/06/19 08:07:16;;;;;;;;;;;;;;;31.20;41.55;101020.77;1649416;86;20189;-79
2021/06/19 08:09:44;;;;;;;;;;;;;;;31.66;40.99;101026.98;1649835;86;20322;-79
2021/06/19 08:12:11;;;;;;;;;;;;;;;31.38;41.41;101023.50;1649273;87;20479;-79
2021/06/19 08:14:37;;;;;;;;;;;;;;;31.38;41.70;101016.58;1650719;87;20151;-78
2021/06/19 08:17:14;;;;;;;;;;;;;;;31.58;41.68;101004.04;1649728;87;20285;-78
2021/06/19 08:19:32;;;;;;;;;;;;;;;31.55;41.61;101004.59;1651160;85;20203;-77
2021/06/19 08:21:58;;;;;;;;;;;;;;;31.54;41.77;100998.80;1656407;84;20303;-77
2021/06/19 08:24:24;;;;;;;;;;;;;;;31.51;41.59;101004.34;1646980;86;20282;-78
2021/06/19 08:26:50;;;;;;;;;;;;;;;31.47;41.79;100995.50;1646436;87;20563;-78
2021/06/19 08:29:16;;;;;;;;;;;;;;;31.45;41.46;101001.89;1646819;87;20315;-77
2021/06/19 08:31:43;;;;;;;;;;;;;;;31.43;41.23;101004.09;1652116;86;20181;-78
2021/06/19 08:34:09;;;;;;;;;;;;;;;31.36;41.52;100998.06;1645206;87;20170;-78
2021/06/19 08:36:35;;;;;;;;;;;;;;;31.30;41.62;100995.31;1647579;86;20169;-79
2021/06/19 08:39:02;;;;;;;;;;;;;;;31.28;41.82;100988.39;1657744;86;20233;-79
2021/06/19 08:41:28;;;;;;;;;;;;;;;31.26;42.10;100985.89;1660573;86;20126;-78
2021/06/19 08:43:54;;;;;;;;;;;;;;;31.22;41.51;100983.42;1660553;85;20232;-78
2021/06/19 08:46:21;;;;;;;;;;;;;;;31.23;41.08;100984.23;1662975;85;20231;-78
2021/06/19 08:48:49;;;;;;;;;;;;;;;31.20;41.27;100981.47;1655254;85;20222;-78
2021/06/19 08:51:15;;;;;;;;;;;;;;;31.11;41.65;100992.86;1648954;87;20471;-78
2021/06/19 08:53:41;;;;;;;;;;;;;;;31.11;41.54;100989.27;1649105;87;20184;-78
2021/06/19 08:56:07;;;;;;;;;;;;;;;31.05;41.62;100994.81;1651873;86;20456;-78
2021/06/19 08:58:33;;;;;;;;;;;;;;;31.36;41.09;100985.05;1662810;85;20208;-78
2021/06/19 09:00:59;;;;;;;;;;;;;;;31.22;41.48;100981.20;1649296;87;20615;-78
2021/06/19 09:03:26;;;;;;;;;;;;;;;31.05;41.91;100990.67;1649864;86;20194;-78
2021/06/19 09:05:52;;;;;;;;;;;;;;;31.02;42.71;100999.55;1650372;86;20147;-78
2021/06/19 09:08:19;;;;;;;;;;;;;;;31.05;42.59;101000.91;1649784;85;20188;-78
2021/06/19 09:10:45;;;;;;;;;;;;;;;31.09;42.45;101007.54;1639299;85;20204;-78
2021/06/19 09:13:15;;;;;;;;;;;;;;;31.11;42.66;101008.08;1631878;88;20195;-79
2021/06/19 09:15:48;;;;;;;;;;;;;;;31.13;42.79;101010.02;1659235;85;20160;-79
2021/06/19 09:18:25;;;;;;;;;;;;;;;31.17;42.89;101015.27;1638912;86;20183;-78
2021/06/19 09:20:54;;;;;;;;;;;;;;;31.17;43.11;101011.12;1648908;86;20197;-78
2021/06/19 09:23:36;;;;;;;;;;;;;;;31.16;43.51;101006.70;1649908;87;20198;-78
2021/06/19 09:26:08;;;;;;;;;;;;;;;31.15;43.17;100997.27;1649208;87;20167;-78
2021/06/19 09:29:07;;;;;;;;;;;;;;;31.16;42.91;101006.70;1649464;86;20826;-78
2021/06/19 09:31:37;;;;;;;;;;;;;;;31.16;42.82;100997.54;1670829;85;20171;-78
2021/06/19 09:34:12;;;;;;;;;;;;;;;31.12;42.90;101004.22;1649178;86;20198;-79
2021/06/19 09:36:44;;;;;;;;;;;;;;;31.07;42.65;101000.92;1649087;85;20197;-78
2021/06/19 09:39:12;;;;;;;;;;;;;;;31.05;42.58;100993.99;1647851;86;20199;-79
2021/06/19 09:41:40;;;;;;;;;;;;;;;31.03;42.47;100994.84;1649418;87;20413;-77
2021/06/19 09:44:06;;;;;;;;;;;;;;;30.96;42.69;100981.30;1649092;85;20231;-78
2021/06/19 09:46:32;;;;;;;;;;;;;;;30.94;42.75;100975.78;1648543;87;20272;-78
2021/06/19 09:49:12;;;;;;;;;;;;;;;30.88;42.91;100978.27;1648327;86;20343;-78
2021/06/19 09:51:51;;;;;;;;;;;;;;;30.81;43.13;100979.97;1649265;87;20189;-78
2021/06/19 09:54:18;;;;;;;;;;;;;;;30.73;43.60;100973.06;1650105;85;20197;-78
2021/06/19 09:56:52;;;;;;;;;;;;;;;30.68;43.95;100982.72;1647955;85;20174;-78
2021/06/19 09:59:28;;;;;;;;;;;;;;;30.62;44.23;100975.56;1657347;85;20181;-79
2021/06/19 10:01:55;;;;;;;;;;;;;;;30.55;44.80;100968.09;1661474;86;20548;-77
2021/06/19 10:04:22;;;;;;;;;;;;;;;30.48;44.73;100977.24;1657762;85;20154;-79
2021/06/19 10:06:48;;;;;;;;;;;;;;;30.42;44.75;100968.11;1648862;86;20152;-78
2021/06/19 10:09:14;;;;;;;;;;;;;;;30.43;44.80;100975.84;1625763;87;20165;-78
2021/06/19 10:11:42;;;;;;;;;;;;;;;30.46;44.69;100971.97;1647272;85;20519;-79
2021/06/19 10:14:10;;;;;;;;;;;;;;;30.80;43.67;100968.08;1647330;86;20448;-78
2021/06/19 10:16:39;;;;;;;;;;;;;;;30.55;43.31;100976.39;1654059;86;20471;-79
2021/06/19 10:19:05;;;;;;;;;;;;;;;30.52;43.45;100974.17;1654397;86;20434;-79
2021/06/19 10:21:31;;;;;;;;;;;;;;;30.53;43.61;100973.91;1643981;86;20182;-78
2021/06/19 10:23:57;;;;;;;;;;;;;;;30.53;43.23;100971.70;1653944;86;20238;-79
2021/06/19 10:26:24;;;;;;;;;;;;;;;30.51;42.75;100973.91;1656211;85;20181;-79
2021/06/19 10:28:52;;;;;;;;;;;;;;;30.47;42.77;100971.41;1649849;86;20209;-78
2021/06/19 10:31:19;;;;;;;;;;;;;;;30.46;42.40;100972.53;1651207;85;20179;-78
2021/06/19 10:33:46;;;;;;;;;;;;;;;30.42;41.43;100963.96;1585087;88;20573;-78
2021/06/19 10:36:12;;;;;;;;;;;;;;;30.39;41.32;100961.77;1656971;86;20168;-79
2021/06/19 10:38:53;;;;;;;;;;;;;;;30.36;41.23;100958.73;1651873;86;20134;-78
2021/06/19 10:41:26;;;;;;;;;;;;;;;30.32;41.41;100964.80;1663181;85;20210;-78
2021/06/19 10:43:52;;;;;;;;;;;;;;;30.29;40.88;100959.82;1650466;85;20567;-77
2021/06/19 10:46:31;;;;;;;;;;;;;;;30.26;41.25;100960.39;1655113;86;20184;-79
2021/06/19 10:48:59;;;;;;;;;;;;;;;30.24;41.38;100952.92;1654610;85;20167;-78
2021/06/19 10:51:29;;;;;;;;;;;;;;;30.24;41.18;100941.86;1651332;86;20155;-78
2021/06/19 10:54:17;;;;;;;;;;;;;;;30.24;41.04;100942.42;1657289;86;20170;-78
2021/06/19 10:56:46;;;;;;;;;;;;;;;30.23;40.92;100938.01;1658305;85;20239;-79
2021/06/19 10:59:20;;;;;;;;;;;;;;;30.23;41.14;100934.69;1653249;86;20437;-78
2021/06/19 11:01:46;;;;;;;;;;;;;;;30.24;41.70;100928.60;1652765;86;20567;-78
2021/06/19 11:04:37;;;;;;;;;;;;;;;30.22;41.59;100930.28;1647391;86;20195;-78
2021/06/19 11:07:04;;;;;;;;;;;;;;;30.22;41.49;100924.75;1646773;86;20156;-78
2021/06/19 11:09:43;;;;;;;;;;;;;;;30.22;41.89;100927.52;1644720;86;20202;-80
2021/06/19 11:12:27;;;;;;;;;;;;;;;30.23;41.83;100925.02;1655796;86;20197;-78
2021/06/19 11:15:04;;;;;;;;;;;;;;;30.25;41.74;100921.97;1643817;86;20160;-78
2021/06/19 11:17:36;;;;;;;;;;;;;;;30.27;42.01;100910.09;1650323;86;20145;-77
2021/06/19 11:20:21;;;;;;;;;;;;;;;30.30;41.80;100906.23;1648834;87;20184;-77
2021/06/19 11:22:57;;;;;;;;;;;;;;;30.30;41.40;100902.09;1649515;87;20474;-78
2021/06/19 11:25:52;;;;;;;;;;;;;;;30.27;41.22;100905.39;1647360;86;20191;-78
2021/06/19 11:28:22;;;;;;;;;;;;;;;30.23;41.25;100897.38;1645740;85;20214;-80
2021/06/19 11:31:05;;;;;;;;;;;;;;;30.22;41.34;100890.20;1648723;87;20167;-77
2021/06/19 11:33:35;;;;;;;;;;;;;;;30.22;41.44;100888.83;1649294;86;20424;-79
2021/06/19 11:36:05;;;;;;;;;;;;;;;30.23;41.57;100878.59;1649334;87;20175;-78
2021/06/19 11:38:56;;;;;;;;;;;;;;;30.25;41.36;100873.08;1649272;87;20193;-78
2021/06/19 11:41:31;;;;;;;;;;;;;;;30.29;41.56;100868.63;1651711;85;20177;-78
2021/06/19 11:43:57;;;;;;;;;;;;;;;30.21;42.09;100868.39;1657993;85;20154;-78
2021/06/19 11:46:23;;;;;;;;;;;;;;;30.20;42.32;100869.47;1662804;86;20149;-79
2021/06/19 11:49:02;;;;;;;;;;;;;;;30.19;42.75;100868.66;1663722;85;20145;-77
2021/06/19 11:51:28;;;;;;;;;;;;;;;30.21;43.38;100869.77;1646227;86;20205;-79
2021/06/19 11:53:54;;;;;;;;;;;;;;;30.21;42.58;100865.07;1647576;86;20457;-79
2021/06/19 11:56:27;;;;;;;;;;;;;;;30.21;42.05;100867.84;1648439;86;20193;-79
2021/06/19 11:59:02;;;;;;;;;;;;;;;30.22;42.05;100880.53;1648061;86;20194;-78
2021/06/19 12:01:37;;;;;;;;;;;;;;;30.23;41.75;100886.33;1647835;87;20199;-78
2021/06/19 12:04:07;;;;;;;;;;;;;;;30.23;41.88;100886.89;1648246;86;20175;-79
2021/06/19 12:06:36;;;;;;;;;;;;;;;30.22;41.84;100876.39;1648343;86;20170;-78
2021/06/19 12:09:04;;;;;;;;;;;;;;;30.19;42.22;100876.94;1647894;87;20147;-78
2021/06/19 12:11:33;;;;;;;;;;;;;;;30.18;42.62;100882.75;1650959;85;20144;-79
2021/06/19 12:13:59;;;;;;;;;;;;;;;30.14;43.24;100877.51;1656252;86;20145;-78
2021/06/19 12:16:32;;;;;;;;;;;;;;;30.11;44.00;100865.59;1642786;87;20159;-79
2021/06/19 12:18:59;;;;;;;;;;;;;;;30.05;44.96;100857.31;1624688;88;20153;-79
2021/06/19 12:21:33;;;;;;;;;;;;;;;30.02;45.13;100848.75;1635310;87;20138;-80
2021/06/19 12:24:00;;;;;;;;;;;;;;;29.95;44.39;100859.27;1654519;85;20191;-78
2021/06/19 12:26:26;;;;;;;;;;;;;;;29.87;42.75;100848.77;1647076;86;20473;-79
2021/06/19 12:28:52;;;;;;;;;;;;;;;29.75;42.75;100843.00;1646328;86;20210;-78
2021/06/19 12:31:24;;;;;;;;;;;;;;;29.70;42.74;100839.39;1645858;86;20317;-78
2021/06/19 12:34:01;;;;;;;;;;;;;;;29.68;42.71;100831.95;1645796;86;20197;-78
2021/06/19 12:36:28;;;;;;;;;;;;;;;29.65;42.23;100829.17;1646051;86;20148;-78
2021/06/19 12:38:54;;;;;;;;;;;;;;;29.63;41.85;100823.11;1648106;87;20211;-80
2021/06/19 12:41:20;;;;;;;;;;;;;;;29.63;41.84;100829.19;1648307;86;20177;-77
2021/06/19 12:43:50;;;;;;;;;;;;;;;29.58;41.88;100827.26;1652841;85;20175;-79